createdAt,value
2018-10-11T00:01:58.731Z,12.77
2018-10-11T00:04:25.982Z,12.20
2018-10-11T00:06:53.240Z,11.20
2018-10-11T00:09:20.506Z,12.40
2018-10-11T00:11:47.770Z,13.40
2018-10-11T00:14:15.078Z,12.00
2018-10-11T00:16:42.319Z,13.03
2018-10-11T00:19:09.802Z,12.43
2018-10-11T00:21:37.463Z,12.80
2018-10-11T00:24:04.718Z,12.23
2018-10-11T00:26:32.005Z,12.50
2018-10-11T00:28:59.278Z,13.33
2018-10-11T00:31:26.530Z,13.13
2018-10-11T00:33:54.040Z,13.10
2018-10-11T00:36:21.481Z,12.87
2018-10-11T00:38:48.731Z,12.33
2018-10-11T00:41:16.202Z,13.77
2018-10-11T00:43:43.446Z,12.63
2018-10-11T00:46:10.906Z,12.80
2018-10-11T00:48:38.557Z,13.33
2018-10-11T00:51:05.906Z,13.00
2018-10-11T00:53:33.174Z,13.50
2018-10-11T00:56:00.422Z,13.20
2018-10-11T00:58:27.734Z,13.20
2018-10-11T01:00:55.141Z,13.40
2018-10-11T01:03:22.440Z,13.17
2018-10-11T01:05:49.694Z,14.57
2018-10-11T01:08:16.966Z,12.60
2018-10-11T01:10:44.246Z,12.43
2018-10-11T01:13:11.534Z,12.27
2018-10-11T01:15:38.875Z,11.43
2018-10-11T01:18:06.172Z,12.27
2018-10-11T01:20:33.440Z,10.97
2018-10-11T01:23:00.697Z,12.50
2018-10-11T01:25:27.966Z,13.37
2018-10-11T01:27:55.526Z,11.47
2018-10-11T01:30:23.070Z,11.83
2018-10-11T01:32:50.365Z,12.60
2018-10-11T01:35:17.610Z,11.83
2018-10-11T01:37:44.864Z,12.13
2018-10-11T01:40:12.126Z,13.27
2018-10-11T01:42:39.384Z,13.27
2018-10-11T01:45:06.830Z,11.20
2018-10-11T01:47:34.106Z,12.57
2018-10-11T01:50:01.375Z,11.90
2018-10-11T01:52:28.618Z,12.43
2018-10-11T01:54:56.034Z,12.83
2018-10-11T01:57:23.356Z,13.33
2018-10-11T01:59:50.602Z,13.23
2018-10-11T02:02:17.862Z,12.27
2018-10-11T02:04:45.103Z,13.53
2018-10-11T02:07:12.371Z,13.80
2018-10-11T02:09:39.639Z,12.53
2018-10-11T02:12:06.906Z,13.13
2018-10-11T02:14:34.168Z,13.67
2018-10-11T02:17:01.465Z,13.43
2018-10-11T02:19:28.777Z,12.87
2018-10-11T02:21:56.077Z,13.13
2018-10-11T02:24:23.330Z,13.50
2018-10-11T02:26:50.810Z,13.60
2018-10-11T02:29:18.078Z,13.70
2018-10-11T02:31:45.354Z,12.30
2018-10-11T02:34:12.618Z,13.43
2018-10-11T02:36:39.893Z,12.67
2018-10-11T02:39:08.074Z,12.43
2018-10-11T02:41:35.558Z,13.20
2018-10-11T02:44:02.806Z,13.20
2018-10-11T02:46:30.056Z,12.27
2018-10-11T02:48:57.319Z,12.87
2018-10-11T02:51:24.745Z,13.40
2018-10-11T02:53:52.419Z,12.90
2018-10-11T02:56:21.210Z,13.97
2018-10-11T02:59:00.253Z,13.03
2018-10-11T03:01:28.215Z,13.13
2018-10-11T03:04:00.096Z,13.53
2018-10-11T03:06:27.413Z,12.27
2018-10-11T03:08:54.714Z,12.87
2018-10-11T03:11:22.236Z,12.10
2018-10-11T03:13:49.506Z,13.00
2018-10-11T03:16:16.776Z,12.57
2018-10-11T03:18:44.048Z,13.00
2018-10-11T03:21:11.501Z,13.37
2018-10-11T03:23:38.738Z,12.73
2018-10-11T03:26:06.004Z,13.37
2018-10-11T03:28:33.296Z,12.93
2018-10-11T03:31:00.566Z,13.23
2018-10-11T03:33:27.810Z,14.10
2018-10-11T03:35:55.070Z,14.43
2018-10-11T03:38:22.322Z,13.27
2018-10-11T03:40:49.599Z,13.57
2018-10-11T03:43:17.018Z,13.90
2018-10-11T03:45:44.269Z,13.20
2018-10-11T03:48:11.543Z,13.57
2018-10-11T03:50:39.190Z,14.20
2018-10-11T03:53:06.466Z,14.53
2018-10-11T03:55:33.717Z,13.13
2018-10-11T03:58:01.021Z,13.63
2018-10-11T04:00:28.336Z,14.10
2018-10-11T04:02:55.629Z,13.13
2018-10-11T04:05:22.891Z,13.47
2018-10-11T04:07:50.156Z,13.17
2018-10-11T04:10:17.413Z,12.93
2018-10-11T04:12:44.699Z,12.93
2018-10-11T04:15:11.950Z,13.17
2018-10-11T04:17:39.234Z,13.33
2018-10-11T04:20:06.571Z,12.83
2018-10-11T04:22:33.851Z,12.83
2018-10-11T04:25:01.095Z,14.13
2018-10-11T04:27:28.347Z,13.73
2018-10-11T04:29:55.627Z,12.60
2018-10-11T04:32:22.895Z,13.80
2018-10-11T04:34:50.167Z,13.03
2018-10-11T04:37:17.418Z,12.30
2018-10-11T04:39:44.838Z,12.37
2018-10-11T04:42:12.083Z,13.17
2018-10-11T04:44:39.335Z,13.83
2018-10-11T04:47:07.004Z,11.43
2018-10-11T04:49:34.866Z,12.57
2018-10-11T04:52:02.131Z,13.27
2018-10-11T04:54:29.392Z,11.67
2018-10-11T04:56:56.694Z,12.83
2018-10-11T04:59:23.971Z,13.70
2018-10-11T05:01:51.234Z,13.37
2018-10-11T05:04:18.496Z,12.27
2018-10-11T05:06:45.777Z,12.47
2018-10-11T05:09:13.128Z,12.63
2018-10-11T05:11:41.378Z,12.70
2018-10-11T05:14:09.704Z,13.07
2018-10-11T05:16:37.008Z,13.47
2018-10-11T05:19:04.816Z,13.07
2018-10-11T05:21:32.202Z,12.47
2018-10-11T05:23:59.729Z,13.63
2018-10-11T05:26:27.002Z,14.17
2018-10-11T05:28:54.279Z,12.87
2018-10-11T05:31:21.954Z,12.50
2018-10-11T05:33:50.053Z,12.83
2018-10-11T05:36:17.500Z,13.20
2018-10-11T05:38:44.809Z,12.23
2018-10-11T05:41:12.710Z,13.10
2018-10-11T05:43:40.877Z,13.03
2018-10-11T05:46:16.650Z,12.63
2018-10-11T05:48:43.982Z,12.23
2018-10-11T05:51:11.315Z,12.77
2018-10-11T05:53:38.625Z,12.87
2018-10-11T05:56:05.922Z,13.87
2018-10-11T05:58:33.222Z,12.33
2018-10-11T06:01:00.554Z,12.40
2018-10-11T06:03:27.863Z,13.30
2018-10-11T06:05:55.178Z,12.20
2018-10-11T06:08:22.498Z,12.60
2018-10-11T06:10:49.807Z,12.63
2018-10-11T06:13:17.111Z,12.17
2018-10-11T06:15:44.418Z,12.73
2018-10-11T06:18:12.218Z,13.93
2018-10-11T06:20:39.779Z,13.10
2018-10-11T06:23:07.438Z,13.33
2018-10-11T06:25:34.723Z,15.07
2018-10-11T06:28:02.023Z,13.80
2018-10-11T06:30:30.728Z,14.10
2018-10-11T06:32:58.034Z,13.83
2018-10-11T06:35:26.095Z,14.03
2018-10-11T06:37:53.610Z,13.83
2018-10-11T06:40:20.895Z,13.57
2018-10-11T06:42:48.288Z,13.97
2018-10-11T06:45:15.769Z,13.47
2018-10-11T06:47:45.194Z,14.57
2018-10-11T06:50:12.499Z,13.30
2018-10-11T06:52:39.822Z,13.30
2018-10-11T06:55:07.224Z,13.73
2018-10-11T06:57:34.487Z,12.83
2018-10-11T07:00:01.822Z,14.90
2018-10-11T07:02:29.121Z,14.57
2018-10-11T07:04:56.387Z,14.00
2018-10-11T07:07:23.696Z,13.93
2018-10-11T07:09:51.154Z,13.80
2018-10-11T07:12:18.431Z,14.30
2018-10-11T07:14:45.687Z,13.93
2018-10-11T07:17:12.930Z,14.47
2018-10-11T07:19:40.179Z,15.30
2018-10-11T07:22:07.759Z,15.77
2018-10-11T07:24:35.071Z,14.33
2018-10-11T07:27:02.334Z,15.03
2018-10-11T07:29:29.662Z,15.73
2018-10-11T07:31:56.923Z,15.27
2018-10-11T07:34:24.230Z,14.40
2018-10-11T07:36:51.679Z,13.50
2018-10-11T07:39:18.939Z,14.43
2018-10-11T07:41:46.184Z,15.10
2018-10-11T07:44:13.435Z,14.90
2018-10-11T07:46:40.682Z,15.30
2018-10-11T07:49:08.407Z,15.33
2018-10-11T07:51:35.983Z,15.80
2018-10-11T07:54:03.295Z,14.17
2018-10-11T07:56:32.018Z,15.83
2018-10-11T07:58:59.904Z,15.30
2018-10-11T08:01:27.765Z,15.00
2018-10-11T08:03:55.001Z,15.97
2018-10-11T08:06:22.267Z,15.70
2018-10-11T08:08:49.554Z,15.17
2018-10-11T08:11:16.880Z,13.90
2018-10-11T08:13:44.080Z,14.37
2018-10-11T08:16:11.391Z,16.70
2018-10-11T08:18:38.692Z,14.23
2018-10-11T08:21:05.909Z,15.63
2018-10-11T08:23:33.153Z,13.87
2018-10-11T08:26:00.684Z,13.37
2018-10-11T08:28:27.686Z,13.30
2018-10-11T08:30:54.939Z,12.73
2018-10-11T08:33:22.427Z,13.30
2018-10-11T08:35:49.740Z,13.07
2018-10-11T08:38:17.157Z,11.90
2018-10-11T08:40:44.315Z,12.73
2018-10-11T08:43:11.560Z,13.67
2018-10-11T08:45:39.006Z,12.67
2018-10-11T08:48:06.655Z,13.37
2018-10-11T08:50:33.906Z,12.90
2018-10-11T08:53:01.174Z,13.97
2018-10-11T08:55:28.483Z,14.23
2018-10-11T08:57:55.710Z,13.07
2018-10-11T09:00:23.006Z,12.27
2018-10-11T09:02:50.257Z,11.63
2018-10-11T09:05:17.582Z,11.60
2018-10-11T09:07:44.770Z,10.97
2018-10-11T09:10:12.168Z,12.50
2018-10-11T09:12:39.403Z,11.43
2018-10-11T09:15:07.569Z,10.83
2018-10-11T09:17:34.826Z,10.97
2018-10-11T09:20:02.078Z,10.80
2018-10-11T09:22:29.391Z,9.53
2018-10-11T09:24:56.649Z,9.73
2018-10-11T09:27:23.907Z,8.53
2018-10-11T09:29:51.165Z,9.23
2018-10-11T09:32:18.405Z,8.50
2018-10-11T09:34:45.773Z,7.13
2018-10-11T09:37:13.142Z,8.17
2018-10-11T09:39:40.382Z,8.27
2018-10-11T09:42:07.654Z,7.57
2018-10-11T09:44:34.885Z,7.43
2018-10-11T09:47:02.132Z,7.13
2018-10-11T09:49:29.443Z,7.67
2018-10-11T09:51:56.682Z,7.43
2018-10-11T09:54:23.940Z,6.80
2018-10-11T09:57:23.517Z,7.33
2018-10-11T09:59:50.875Z,7.20
2018-10-11T10:02:18.329Z,6.70
2018-10-11T10:04:46.809Z,6.53
2018-10-11T10:07:14.082Z,7.03
2018-10-11T10:09:42.190Z,6.00
2018-10-11T10:12:09.994Z,6.03
2018-10-11T10:14:37.551Z,5.93
2018-10-11T10:17:05.415Z,6.17
2018-10-11T10:19:33.685Z,5.73
2018-10-11T10:22:01.145Z,5.30
2018-10-11T10:24:28.603Z,5.07
2018-10-11T10:26:55.941Z,5.17
2018-10-11T10:29:23.119Z,4.80
2018-10-11T10:31:50.766Z,5.17
2018-10-11T10:34:18.012Z,4.90
2018-10-11T10:36:45.484Z,4.80
2018-10-11T10:39:12.731Z,4.60
2018-10-11T10:41:39.978Z,4.80
2018-10-11T10:44:07.456Z,4.73
2018-10-11T10:46:35.398Z,4.60
2018-10-11T10:49:02.662Z,5.00
2018-10-11T10:51:30.338Z,4.63
2018-10-11T10:53:57.567Z,4.40
2018-10-11T10:56:25.038Z,4.30
2018-10-11T10:58:53.106Z,3.93
2018-10-11T11:01:20.389Z,3.97
2018-10-11T11:03:47.804Z,3.90
2018-10-11T11:06:15.527Z,4.20
2018-10-11T11:08:42.762Z,4.30
2018-10-11T11:11:09.989Z,3.63
2018-10-11T11:13:37.439Z,3.77
2018-10-11T11:16:04.684Z,3.70
2018-10-11T11:18:31.945Z,3.70
2018-10-11T11:20:59.205Z,4.00
2018-10-11T11:23:26.434Z,3.53
2018-10-11T11:25:53.735Z,3.23
2018-10-11T11:28:21.158Z,3.37
2018-10-11T11:30:48.407Z,3.27
2018-10-11T11:33:15.649Z,2.90
2018-10-11T11:35:42.915Z,3.50
2018-10-11T11:38:10.357Z,3.17
2018-10-11T11:40:37.615Z,3.03
2018-10-11T11:43:05.078Z,3.07
2018-10-11T11:45:32.364Z,3.30
2018-10-11T11:47:59.610Z,3.20
2018-10-11T11:50:26.881Z,4.03
2018-10-11T11:52:54.104Z,3.30
2018-10-11T11:55:21.358Z,3.23
2018-10-11T11:57:48.607Z,3.77
2018-10-11T12:00:15.906Z,3.80
2018-10-11T12:02:43.188Z,3.30
2018-10-11T12:05:10.517Z,3.60
2018-10-11T12:07:37.715Z,3.57
2018-10-11T12:10:05.022Z,3.40
2018-10-11T12:13:06.001Z,3.57
2018-10-11T12:15:33.854Z,3.60
2018-10-11T12:18:02.141Z,3.70
2018-10-11T12:20:30.842Z,4.67
2018-10-11T12:22:59.194Z,4.90
2018-10-11T12:25:26.861Z,5.60
2018-10-11T12:27:54.169Z,5.03
2018-10-11T12:30:21.471Z,5.27
2018-10-11T12:32:48.744Z,5.30
2018-10-11T12:35:17.523Z,5.90
2018-10-11T12:37:45.249Z,5.90
2018-10-11T12:40:12.844Z,5.10
2018-10-11T12:42:40.261Z,5.40
2018-10-11T12:45:08.577Z,5.40
2018-10-11T12:47:36.030Z,5.13
2018-10-11T12:50:03.520Z,4.43
2018-10-11T12:52:30.776Z,4.57
2018-10-11T12:54:58.056Z,4.03
2018-10-11T12:57:25.338Z,4.90
2018-10-11T12:59:52.606Z,5.07
2018-10-11T13:02:19.902Z,4.70
2018-10-11T13:04:47.514Z,5.33
2018-10-11T13:07:14.828Z,4.43
2018-10-11T13:09:42.122Z,5.00
2018-10-11T13:12:09.427Z,4.60
2018-10-11T13:14:36.723Z,5.07
2018-10-11T13:17:03.999Z,4.13
2018-10-11T13:19:31.275Z,4.70
2018-10-11T13:21:58.551Z,4.40
2018-10-11T13:24:25.990Z,4.87
2018-10-11T13:26:53.402Z,5.03
2018-10-11T13:29:20.690Z,4.73
2018-10-11T13:31:48.326Z,5.20
2018-10-11T13:34:15.618Z,4.80
2018-10-11T13:36:43.623Z,4.60
2018-10-11T13:39:11.184Z,4.40
2018-10-11T13:41:39.051Z,4.70
2018-10-11T13:44:06.186Z,4.53
2018-10-11T13:46:33.631Z,4.87
2018-10-11T13:49:00.902Z,4.50
2018-10-11T13:51:29.076Z,4.10
2018-10-11T13:53:58.397Z,5.33
2018-10-11T13:56:24.013Z,4.27
2018-10-11T13:58:51.409Z,5.30
2018-10-11T14:01:18.679Z,4.73
2018-10-11T14:03:46.518Z,5.30
2018-10-11T14:06:14.175Z,5.33
2018-10-11T14:08:41.469Z,4.90
2018-10-11T14:11:08.878Z,5.63
2018-10-11T14:13:36.718Z,5.13
2018-10-11T14:16:03.974Z,4.93
2018-10-11T14:18:31.251Z,5.10
2018-10-11T14:20:58.694Z,5.73
2018-10-11T14:23:26.635Z,5.87
2018-10-11T14:25:54.560Z,5.63
2018-10-11T14:28:21.849Z,5.20
2018-10-11T14:30:49.118Z,5.50
2018-10-11T14:33:16.500Z,5.50
2018-10-11T14:35:43.687Z,5.43
2018-10-11T14:38:11.189Z,5.07
2018-10-11T14:40:38.518Z,5.53
2018-10-11T14:43:05.834Z,5.07
2018-10-11T14:45:33.353Z,5.13
2018-10-11T14:48:00.647Z,4.90
2018-10-11T14:50:28.358Z,5.20
2018-10-11T14:52:55.639Z,5.50
2018-10-11T14:55:22.995Z,5.43
2018-10-11T14:57:50.266Z,4.60
2018-10-11T15:00:17.588Z,4.93
2018-10-11T15:02:44.915Z,5.40
2018-10-11T15:05:12.148Z,4.80
2018-10-11T15:07:39.458Z,5.17
2018-10-11T15:10:06.762Z,4.70
2018-10-11T15:12:35.004Z,4.17
2018-10-11T15:15:02.406Z,4.67
2018-10-11T15:17:29.750Z,4.30
2018-10-11T15:19:56.999Z,4.83
2018-10-11T15:22:24.246Z,4.70
2018-10-11T15:24:51.534Z,4.73
2018-10-11T15:27:18.770Z,4.57
2018-10-11T15:29:46.066Z,4.63
2018-10-11T15:32:13.304Z,4.03
2018-10-11T15:34:40.544Z,3.93
2018-10-11T15:37:07.803Z,3.90
2018-10-11T15:39:35.088Z,5.20
2018-10-11T15:42:02.346Z,4.80
2018-10-11T15:44:29.607Z,4.73
2018-10-11T15:46:56.879Z,4.10
2018-10-11T15:49:24.169Z,4.50
2018-10-11T15:51:51.426Z,4.30
2018-10-11T15:54:18.674Z,4.57
2018-10-11T15:56:45.914Z,4.33
2018-10-11T15:59:13.187Z,4.80
2018-10-11T16:01:40.456Z,4.47
2018-10-11T16:04:07.738Z,4.33
2018-10-11T16:06:34.995Z,4.23
2018-10-11T16:09:02.408Z,4.37
2018-10-11T16:11:29.586Z,4.60
2018-10-11T16:13:56.891Z,4.73
2018-10-11T16:16:24.190Z,4.70
2018-10-11T16:18:51.454Z,4.30
2018-10-11T16:21:18.702Z,4.63
2018-10-11T16:23:45.946Z,4.27
2018-10-11T16:26:13.202Z,4.30
2018-10-11T16:28:40.594Z,4.50
2018-10-11T16:31:08.241Z,4.30
2018-10-11T16:33:35.470Z,4.50
2018-10-11T16:36:02.753Z,4.33
2018-10-11T16:38:30.070Z,4.60
2018-10-11T16:40:57.614Z,4.60
2018-10-11T16:43:24.862Z,5.20
2018-10-11T16:45:52.163Z,4.43
2018-10-11T16:48:19.409Z,4.97
2018-10-11T16:50:46.651Z,4.80
2018-10-11T16:53:13.900Z,4.87
2018-10-11T16:55:41.295Z,4.60
2018-10-11T16:58:08.616Z,5.43
2018-10-11T17:00:35.807Z,4.87
2018-10-11T17:03:03.066Z,4.93
2018-10-11T17:05:30.349Z,4.87
2018-10-11T17:07:57.665Z,5.20
2018-10-11T17:10:24.862Z,5.13
2018-10-11T17:12:52.102Z,4.73
2018-10-11T17:15:19.556Z,4.67
2018-10-11T17:17:46.798Z,4.60
2018-10-11T17:20:14.368Z,5.33
2018-10-11T17:22:41.627Z,5.23
2018-10-11T17:25:08.994Z,5.07
2018-10-11T17:27:36.336Z,5.50
2018-10-11T17:30:03.714Z,5.40
2018-10-11T17:32:31.014Z,5.20
2018-10-11T17:34:58.375Z,5.77
2018-10-11T17:37:25.723Z,5.60
2018-10-11T17:39:53.023Z,5.87
2018-10-11T17:42:20.307Z,5.20
2018-10-11T17:44:47.610Z,6.10
2018-10-11T17:47:14.906Z,6.07
2018-10-11T17:49:42.258Z,5.53
2018-10-11T17:52:09.585Z,6.23
2018-10-11T17:54:37.140Z,6.67
2018-10-11T17:57:04.443Z,5.80
2018-10-11T17:59:31.747Z,6.50
2018-10-11T18:02:00.115Z,6.27
2018-10-11T18:04:27.756Z,6.30
2018-10-11T18:06:55.031Z,6.17
2018-10-11T18:09:22.305Z,6.73
2018-10-11T18:11:49.622Z,6.50
2018-10-11T18:14:16.870Z,6.17
2018-10-11T18:16:44.142Z,7.03
2018-10-11T18:19:11.419Z,6.83
2018-10-11T18:21:38.728Z,6.70
2018-10-11T18:24:06.198Z,6.90
2018-10-11T18:26:33.474Z,7.00
2018-10-11T18:29:00.767Z,6.43
2018-10-11T18:31:28.047Z,6.80
2018-10-11T18:33:55.592Z,6.43
2018-10-11T18:36:22.863Z,7.30
2018-10-11T18:38:50.142Z,6.47
2018-10-11T18:41:17.422Z,7.37
2018-10-11T18:43:44.699Z,7.23
2018-10-11T18:46:12.106Z,7.53
2018-10-11T18:48:39.378Z,6.80
2018-10-11T18:51:06.654Z,7.27
2018-10-11T18:53:33.959Z,7.57
2018-10-11T18:56:01.413Z,6.73
2018-10-11T18:58:28.686Z,7.37
2018-10-11T19:00:55.979Z,7.60
2018-10-11T19:03:23.262Z,7.20
2018-10-11T19:05:50.523Z,6.90
2018-10-11T19:08:18.069Z,6.93
2018-10-11T19:10:45.074Z,6.93
2018-10-11T19:13:12.350Z,7.63
2018-10-11T19:15:39.683Z,7.67
2018-10-11T19:18:07.206Z,7.13
2018-10-11T19:20:34.479Z,7.03
2018-10-11T19:23:01.767Z,7.67
2018-10-11T19:25:29.103Z,7.30
2018-10-11T19:27:56.530Z,8.20
2018-10-11T19:30:23.797Z,7.50
2018-10-11T19:32:51.087Z,7.50
2018-10-11T19:35:18.359Z,7.97
2018-10-11T19:37:45.629Z,8.40
2018-10-11T19:40:12.989Z,8.17
2018-10-11T19:42:40.255Z,7.77
2018-10-11T19:45:07.552Z,7.57
2018-10-11T19:47:34.846Z,7.57
2018-10-11T19:50:02.202Z,7.60
2018-10-11T19:52:29.475Z,7.47
2018-10-11T19:54:56.876Z,7.97
2018-10-11T19:57:24.274Z,7.63
2018-10-11T19:59:51.525Z,7.47
2018-10-11T20:02:18.813Z,7.23
2018-10-11T20:04:46.322Z,7.00
2018-10-11T20:07:13.582Z,7.97
2018-10-11T20:09:40.866Z,8.00
2018-10-11T20:12:08.292Z,7.50
2018-10-11T20:14:35.590Z,8.17
2018-10-11T20:17:02.900Z,7.50
2018-10-11T20:19:30.162Z,7.50
2018-10-11T20:21:57.430Z,8.03
2018-10-11T20:24:24.735Z,7.53
2018-10-11T20:26:52.020Z,7.23
2018-10-11T20:29:19.687Z,8.10
2018-10-11T20:31:46.999Z,7.20
2018-10-11T20:34:14.392Z,7.60
2018-10-11T20:36:41.642Z,7.67
2018-10-11T20:39:09.606Z,8.53
2018-10-11T20:41:37.141Z,8.30
2018-10-11T20:44:04.459Z,7.87
2018-10-11T20:46:31.735Z,7.57
2018-10-11T20:48:59.042Z,7.80
2018-10-11T20:51:26.450Z,7.83
2018-10-11T20:53:53.794Z,8.40
2018-10-11T20:56:21.504Z,8.00
2018-10-11T20:58:48.798Z,8.73
2018-10-11T21:01:16.096Z,8.37
2018-10-11T21:03:43.394Z,7.73
2018-10-11T21:06:10.719Z,8.23
2018-10-11T21:08:38.830Z,8.10
2018-10-11T21:11:06.328Z,9.00
2018-10-11T21:13:33.738Z,7.87
2018-10-11T21:16:01.534Z,8.57
2018-10-11T21:18:28.832Z,8.80
2018-10-11T21:20:56.131Z,9.27
2018-10-11T21:23:23.394Z,9.07
2018-10-11T21:25:50.679Z,8.83
2018-10-11T21:28:18.090Z,8.80
2018-10-11T21:30:45.267Z,9.27
2018-10-11T21:33:12.532Z,8.90
2018-10-11T21:35:39.797Z,8.87
2018-10-11T21:38:07.422Z,9.57
2018-10-11T21:40:34.903Z,9.37
2018-10-11T21:43:02.266Z,9.23
2018-10-11T21:45:29.645Z,9.30
2018-10-11T21:47:56.924Z,9.60
2018-10-11T21:50:24.242Z,9.47
2018-10-11T21:52:51.519Z,10.53
2018-10-11T21:55:18.794Z,9.97
2018-10-11T21:57:46.047Z,9.50
2018-10-11T22:00:13.306Z,9.93
2018-10-11T22:02:40.543Z,9.70
2018-10-11T22:05:07.844Z,9.60
2018-10-11T22:07:35.114Z,10.40
2018-10-11T22:10:02.432Z,10.20
2018-10-11T22:12:29.686Z,10.37
2018-10-11T22:14:57.087Z,10.27
2018-10-11T22:17:24.294Z,10.37
2018-10-11T22:19:51.650Z,9.60
2018-10-11T22:22:19.182Z,10.17
2018-10-11T22:24:46.455Z,9.77
2018-10-11T22:27:13.713Z,10.27
2018-10-11T22:29:40.985Z,10.00
2018-10-11T22:32:08.418Z,8.70
2018-10-11T22:34:35.711Z,9.57
2018-10-11T22:37:03.055Z,9.60
2018-10-11T22:39:30.278Z,10.13
2018-10-11T22:41:57.586Z,9.63
2018-10-11T22:44:24.888Z,9.70
2018-10-11T22:46:52.176Z,10.33
2018-10-11T22:49:19.441Z,9.37
2018-10-11T22:51:46.758Z,9.70
2018-10-11T22:54:14.048Z,10.17
2018-10-11T22:56:41.350Z,9.63
2018-10-11T22:59:08.659Z,9.90
2018-10-11T23:01:35.981Z,9.50
2018-10-11T23:04:03.266Z,10.60
2018-10-11T23:06:30.514Z,10.47
2018-10-11T23:08:57.998Z,10.47
2018-10-11T23:11:25.246Z,10.27
2018-10-11T23:13:52.566Z,9.60
2018-10-11T23:16:20.063Z,10.27
2018-10-11T23:18:47.323Z,10.30
2018-10-11T23:21:14.585Z,10.17
2018-10-11T23:23:42.850Z,10.80
2018-10-11T23:26:10.140Z,9.47
2018-10-11T23:28:37.555Z,10.27
2018-10-11T23:31:04.809Z,9.90
2018-10-11T23:33:32.066Z,10.70
2018-10-11T23:35:59.504Z,9.63
2018-10-11T23:38:26.954Z,10.50
2018-10-11T23:40:54.206Z,9.17
2018-10-11T23:43:21.469Z,9.33
2018-10-11T23:45:48.742Z,9.20
2018-10-11T23:48:16.213Z,8.60
2018-10-11T23:50:43.486Z,8.63
2018-10-11T23:53:10.745Z,8.40
2018-10-11T23:55:38.019Z,8.57
2018-10-11T23:58:07.113Z,8.90
